createdAt,value
2022-12-26T00:00:00.149Z,11
2022-12-26T00:05:00.247Z,11
2022-12-26T00:10:00.134Z,11
2022-12-26T00:15:00.125Z,11
2022-12-26T00:20:00.175Z,11
2022-12-26T00:25:00.112Z,11
2022-12-26T00:30:00.160Z,11
2022-12-26T00:35:00.201Z,11
2022-12-26T00:40:00.114Z,11
2022-12-26T00:45:00.093Z,11
2022-12-26T00:50:14.475Z,11
2022-12-26T00:55:00.136Z,11
2022-12-26T01:00:00.165Z,11
2022-12-26T01:05:00.126Z,11
2022-12-26T01:10:00.179Z,11
2022-12-26T01:15:00.132Z,11.5
2022-12-26T01:20:00.129Z,11.5
2022-12-26T01:25:00.112Z,11.5
2022-12-26T01:30:00.123Z,11.5
2022-12-26T01:35:00.134Z,11.5
2022-12-26T01:40:00.106Z,11.5
2022-12-26T01:45:00.112Z,11.5
2022-12-26T01:50:00.140Z,11.5
2022-12-26T01:55:00.117Z,11.5
2022-12-26T02:00:00.123Z,11.5
2022-12-26T02:05:00.191Z,11
2022-12-26T02:10:00.154Z,11
2022-12-26T02:15:00.160Z,11
2022-12-26T02:20:00.111Z,11
2022-12-26T02:25:00.106Z,11
2022-12-26T02:30:00.134Z,11
2022-12-26T02:35:00.119Z,11
2022-12-26T02:40:00.143Z,11.5
2022-12-26T02:45:00.106Z,11.5
2022-12-26T02:50:00.146Z,11.5
2022-12-26T02:55:00.161Z,11.5
2022-12-26T03:00:00.126Z,11.5
2022-12-26T03:05:00.147Z,11.5
2022-12-26T03:10:00.157Z,11.5
2022-12-26T03:15:00.154Z,11.5
2022-12-26T03:20:00.251Z,11.5
2022-12-26T03:25:00.121Z,11.5
2022-12-26T03:30:00.112Z,11.5
2022-12-26T03:35:00.148Z,11.5
2022-12-26T03:40:00.120Z,11.5
2022-12-26T03:45:00.169Z,11.5
2022-12-26T03:50:00.152Z,11.5
2022-12-26T03:55:00.129Z,11.5
2022-12-26T04:00:00.317Z,11
2022-12-26T04:05:00.133Z,11
2022-12-26T04:10:00.155Z,11
2022-12-26T04:15:00.166Z,11
2022-12-26T04:20:00.210Z,11
2022-12-26T04:25:00.128Z,11.5
2022-12-26T04:30:00.159Z,11.5
2022-12-26T04:35:00.244Z,11.5
2022-12-26T04:40:00.232Z,12
2022-12-26T04:45:00.182Z,12
2022-12-26T04:50:00.118Z,12
2022-12-26T04:55:00.125Z,12
2022-12-26T05:00:00.124Z,12
2022-12-26T05:05:00.116Z,12
2022-12-26T05:10:00.101Z,12
2022-12-26T05:15:00.119Z,11.5
2022-12-26T05:20:00.143Z,11.5
2022-12-26T05:25:00.124Z,11.5
2022-12-26T05:30:00.145Z,11.5
2022-12-26T05:35:00.126Z,11.5
2022-12-26T05:40:00.143Z,11.5
2022-12-26T05:45:00.095Z,11.5
2022-12-26T05:50:00.142Z,11.5
2022-12-26T05:55:00.125Z,11.5
2022-12-26T06:00:00.118Z,11.5
2022-12-26T06:05:00.104Z,11.5
2022-12-26T06:10:00.121Z,11.5
2022-12-26T06:15:00.144Z,11.5
2022-12-26T06:20:00.129Z,11
2022-12-26T06:25:00.142Z,11
2022-12-26T06:30:00.103Z,11
2022-12-26T06:35:00.116Z,11
2022-12-26T06:40:00.118Z,10.5
2022-12-26T06:45:00.120Z,10.5
2022-12-26T06:50:00.118Z,10.5
2022-12-26T06:55:00.123Z,10.5
2022-12-26T07:00:00.161Z,10.5
2022-12-26T07:05:00.159Z,11
2022-12-26T07:10:00.148Z,11
2022-12-26T07:15:01.749Z,11.5
2022-12-26T07:20:00.150Z,11.5
2022-12-26T07:25:00.124Z,11.5
2022-12-26T07:30:00.141Z,11.5
2022-12-26T07:35:00.144Z,11.5
2022-12-26T07:40:00.135Z,11.5
2022-12-26T07:45:00.114Z,12
2022-12-26T07:50:00.111Z,12
2022-12-26T07:55:00.142Z,12
2022-12-26T08:00:00.133Z,12
2022-12-26T08:05:00.127Z,12
2022-12-26T08:10:00.104Z,12
2022-12-26T08:15:00.124Z,12
2022-12-26T08:20:00.167Z,12
2022-12-26T08:25:00.125Z,12.5
2022-12-26T08:30:00.177Z,12.5
2022-12-26T08:35:00.142Z,12.5
2022-12-26T08:40:00.116Z,12.5
2022-12-26T08:45:00.096Z,12.5
2022-12-26T08:50:00.110Z,12.5
2022-12-26T08:55:00.117Z,12.5
2022-12-26T09:00:00.101Z,12.5
2022-12-26T09:05:00.142Z,12.5
2022-12-26T09:10:00.159Z,12.5
2022-12-26T09:15:00.114Z,12.5
2022-12-26T09:20:00.148Z,12.5
2022-12-26T09:25:00.110Z,12.5
2022-12-26T09:30:00.114Z,13
2022-12-26T09:35:00.125Z,13
2022-12-26T09:40:00.124Z,13
2022-12-26T09:45:00.108Z,13
2022-12-26T09:50:00.117Z,13
2022-12-26T09:55:05.104Z,13
2022-12-26T10:00:00.125Z,12.5
2022-12-26T10:05:00.221Z,12.5
2022-12-26T10:10:00.102Z,12.5
2022-12-26T10:15:00.152Z,12.5
2022-12-26T10:20:00.097Z,12.5
2022-12-26T10:25:00.105Z,12.5
2022-12-26T10:30:00.121Z,12.5
2022-12-26T10:35:00.143Z,12.5
2022-12-26T10:40:00.101Z,12.5
2022-12-26T10:45:00.128Z,12.5
2022-12-26T10:50:00.162Z,13
2022-12-26T10:55:27.707Z,13
2022-12-26T11:00:00.211Z,13
2022-12-26T11:10:00.112Z,12
2022-12-26T11:15:00.125Z,12
2022-12-26T11:20:00.113Z,11.5
2022-12-26T11:25:00.121Z,11.5
2022-12-26T11:30:00.111Z,11.5
2022-12-26T11:35:00.111Z,11.5
2022-12-26T11:40:00.112Z,11.5
2022-12-26T11:45:00.104Z,11.5
2022-12-26T11:50:00.104Z,11
2022-12-26T11:55:00.126Z,11
2022-12-26T12:00:00.140Z,11
2022-12-26T12:05:00.160Z,11
2022-12-26T12:10:00.120Z,11
2022-12-26T12:15:00.201Z,11
2022-12-26T12:20:00.146Z,11
2022-12-26T12:25:00.226Z,11
2022-12-26T12:30:00.261Z,11
2022-12-26T12:35:00.174Z,11
2022-12-26T12:40:00.138Z,11
2022-12-26T12:45:00.128Z,11
2022-12-26T12:50:00.136Z,11
2022-12-26T12:55:00.216Z,10.5
2022-12-26T13:00:00.163Z,10.5
2022-12-26T13:05:00.118Z,10.5
2022-12-26T13:10:00.327Z,11
2022-12-26T13:15:00.168Z,11
2022-12-26T13:20:02.127Z,11
2022-12-26T13:25:00.132Z,11
2022-12-26T13:30:00.152Z,11
2022-12-26T13:35:00.144Z,11
2022-12-26T13:40:00.120Z,11
2022-12-26T13:45:00.122Z,11
2022-12-26T13:50:00.094Z,11
2022-12-26T13:55:00.154Z,11
2022-12-26T14:00:00.137Z,11
2022-12-26T14:05:00.150Z,11
2022-12-26T14:10:00.136Z,11
2022-12-26T14:15:00.207Z,10.5
2022-12-26T14:20:00.160Z,10.5
2022-12-26T14:25:00.135Z,10.5
2022-12-26T14:30:00.162Z,10.5
2022-12-26T14:35:00.146Z,10.5
2022-12-26T14:40:00.117Z,10.5
2022-12-26T14:45:00.104Z,10.5
2022-12-26T14:50:00.126Z,10.5
2022-12-26T14:55:00.171Z,10.5
2022-12-26T15:00:03.559Z,10
2022-12-26T15:05:00.133Z,10
2022-12-26T15:10:00.131Z,10
2022-12-26T15:15:00.172Z,10
2022-12-26T15:20:00.135Z,10
2022-12-26T15:30:00.145Z,10
2022-12-26T15:35:00.140Z,10
2022-12-26T15:40:00.139Z,10
2022-12-26T15:45:00.130Z,9.5
2022-12-26T15:50:00.109Z,9.5
2022-12-26T15:55:00.167Z,9.5
2022-12-26T16:00:00.177Z,9.5
2022-12-26T16:05:00.117Z,9.5
2022-12-26T16:10:00.159Z,10
2022-12-26T16:15:00.159Z,10
2022-12-26T16:20:00.244Z,10
2022-12-26T16:25:00.137Z,10
2022-12-26T16:30:00.189Z,10
2022-12-26T16:35:00.150Z,10
2022-12-26T16:40:00.089Z,10
2022-12-26T16:45:00.095Z,10
2022-12-26T16:50:00.133Z,9.5
2022-12-26T16:55:00.206Z,10
2022-12-26T17:00:00.159Z,10
2022-12-26T17:05:00.121Z,10
2022-12-26T17:10:00.161Z,10
2022-12-26T17:15:00.141Z,10
2022-12-26T17:20:00.130Z,10
2022-12-26T17:25:00.139Z,10
2022-12-26T17:30:00.149Z,10
2022-12-26T17:35:00.187Z,10
2022-12-26T17:40:02.952Z,10
2022-12-26T17:45:00.140Z,10
2022-12-26T17:50:00.136Z,10.5
2022-12-26T17:55:00.193Z,10.5
2022-12-26T18:00:00.234Z,10.5
2022-12-26T18:05:00.122Z,10.5
2022-12-26T18:10:00.172Z,10.5
2022-12-26T18:15:02.241Z,10.5
2022-12-26T18:20:00.134Z,10.5
2022-12-26T18:25:00.125Z,10.5
2022-12-26T18:30:00.190Z,10.5
2022-12-26T18:35:00.201Z,10.5
2022-12-26T18:40:00.175Z,10.5
2022-12-26T18:45:00.148Z,10
2022-12-26T18:50:00.154Z,10
2022-12-26T18:55:00.139Z,9.5
2022-12-26T19:00:00.134Z,9.5
2022-12-26T19:05:00.125Z,9
2022-12-26T19:10:00.128Z,9
2022-12-26T19:15:00.163Z,9
2022-12-26T19:20:00.121Z,9
2022-12-26T19:25:00.116Z,9
2022-12-26T19:30:00.135Z,9
2022-12-26T19:35:00.182Z,8.5
2022-12-26T19:40:00.124Z,8.5
2022-12-26T19:45:00.117Z,8.5
2022-12-26T19:50:00.116Z,8.5
2022-12-26T19:55:00.182Z,8.5
2022-12-26T20:00:00.135Z,8
2022-12-26T20:05:00.147Z,8
2022-12-26T20:10:00.127Z,8
2022-12-26T20:15:00.151Z,8
2022-12-26T20:20:00.139Z,8
2022-12-26T20:25:00.134Z,7.5
2022-12-26T20:30:00.141Z,7.5
2022-12-26T20:35:00.198Z,7.5
2022-12-26T20:40:00.131Z,7.5
2022-12-26T20:45:00.108Z,7
2022-12-26T20:50:00.147Z,7
2022-12-26T20:55:00.162Z,7
2022-12-26T21:00:00.203Z,7
2022-12-26T21:05:00.130Z,7
2022-12-26T21:10:00.121Z,7
2022-12-26T21:15:00.166Z,7
2022-12-26T21:20:00.138Z,7
2022-12-26T21:25:00.154Z,7
2022-12-26T21:30:00.121Z,7
2022-12-26T21:35:00.173Z,7
2022-12-26T21:40:00.126Z,6.5
2022-12-26T21:45:00.116Z,6.5
2022-12-26T21:50:00.152Z,6.5
2022-12-26T21:55:00.142Z,6.5
2022-12-26T22:00:00.276Z,6.5
2022-12-26T22:05:00.161Z,6.5
2022-12-26T22:10:00.181Z,6.5
2022-12-26T22:15:00.143Z,6.5
2022-12-26T22:20:00.154Z,6.5
2022-12-26T22:25:00.108Z,6.5
2022-12-26T22:30:00.159Z,6.5
2022-12-26T22:35:00.181Z,6.5
2022-12-26T22:40:00.167Z,6.5
2022-12-26T22:45:00.143Z,6.5
2022-12-26T22:50:00.110Z,6.5
2022-12-26T22:55:00.145Z,6
2022-12-26T23:00:09.440Z,6
2022-12-26T23:05:00.101Z,6
2022-12-26T23:10:00.131Z,6
2022-12-26T23:15:00.137Z,6
2022-12-26T23:20:00.117Z,6.5
2022-12-26T23:25:00.121Z,6.5
2022-12-26T23:30:00.149Z,6.5
2022-12-26T23:35:00.126Z,6.5
2022-12-26T23:40:00.118Z,6.5
2022-12-26T23:45:00.116Z,6.5
2022-12-26T23:50:00.101Z,6.5
2022-12-26T23:55:00.128Z,6.5
